SWA4122 KSAN-KSJC
Flight info
| Callsign | SWA4122 |
|---|---|
| Flight time | 0h 59m |
| Altitude | 36000 |
| Route | PADRZ2 IKAYE TESEA SCTRR TROXX SILCN6 |
| Aircraft | B738/M-SADE2E3GIJ4RWZ/LB1D1 |
Departure
| Time | 2026-05-08 00:05 |
|---|---|
| Airport | San Diego International Airport (KSAN) |
Arrival
| Time | 2026-05-08 01:04 |
|---|---|
| Airport | Norman Y. Mineta San Jose International Airport (KSJC) |
| Time | Latitude | Longitude | Altitude | Speed | Heading |
|---|---|---|---|---|---|
| 2026-05-07 23:36 | 32.73273 | -117.19697 | 23 ft | 0 kts | 136° |
| 2026-05-07 23:56 | 32.73281 | -117.19706 | 25 ft | 3 kts | 140° |
| 2026-05-07 23:56 | 32.73297 | -117.19721 | 27 ft | 3 kts | 149° |
| 2026-05-07 23:56 | 32.73315 | -117.19731 | 27 ft | 3 kts | 160° |
| 2026-05-07 23:57 | 32.73334 | -117.19738 | 27 ft | 3 kts | 172° |
| 2026-05-07 23:57 | 32.73355 | -117.19739 | 27 ft | 3 kts | 184° |
| 2026-05-07 23:57 | 32.73374 | -117.19736 | 27 ft | 3 kts | 195° |
| 2026-05-07 23:57 | 32.73393 | -117.19728 | 29 ft | 3 kts | 202° |
| 2026-05-07 23:58 | 32.73412 | -117.19719 | 28 ft | 3 kts | 199° |
| 2026-05-07 23:58 | 32.73429 | -117.19714 | 28 ft | 3 kts | 162° |
| 2026-05-07 23:58 | 32.73434 | -117.19714 | 28 ft | 2 kts | 107° |
| 2026-05-07 23:58 | 32.73434 | -117.19715 | 28 ft | 2 kts | 106° |
| 2026-05-08 00:00 | 32.73433 | -117.19707 | 28 ft | 3 kts | 105° |
| 2026-05-08 00:01 | 32.73412 | -117.19622 | 27 ft | 18 kts | 105° |
| 2026-05-08 00:01 | 32.73367 | -117.19438 | 27 ft | 26 kts | 106° |
| 2026-05-08 00:01 | 32.73310 | -117.19207 | 23 ft | 31 kts | 104° |
| 2026-05-08 00:01 | 32.73253 | -117.18971 | 27 ft | 29 kts | 106° |
| 2026-05-08 00:02 | 32.73199 | -117.18746 | 27 ft | 27 kts | 107° |
| 2026-05-08 00:02 | 32.73148 | -117.18538 | 23 ft | 26 kts | 105° |
| 2026-05-08 00:02 | 32.73097 | -117.18334 | 24 ft | 25 kts | 105° |
| 2026-05-08 00:02 | 32.73054 | -117.18143 | 20 ft | 23 kts | 106° |
| 2026-05-08 00:03 | 32.73010 | -117.17968 | 21 ft | 21 kts | 106° |
| 2026-05-08 00:03 | 32.72971 | -117.17806 | 18 ft | 20 kts | 106° |
| 2026-05-08 00:03 | 32.72953 | -117.17685 | 19 ft | 12 kts | 80° |
| 2026-05-08 00:03 | 32.72987 | -117.17606 | 21 ft | 9 kts | 30° |
| 2026-05-08 00:04 | 32.73023 | -117.17615 | 22 ft | 5 kts | 306° |
| 2026-05-08 00:04 | 32.73041 | -117.17675 | 20 ft | 13 kts | 286° |
| 2026-05-08 00:04 | 32.73132 | -117.18046 | 19 ft | 85 kts | 286° |
| 2026-05-08 00:04 | 32.73363 | -117.18991 | 30 ft | 150 kts | 286° |
| 2026-05-08 00:05 | 32.73694 | -117.20356 | 436 ft | 171 kts | 286° |
| 2026-05-08 00:05 | 32.73995 | -117.21619 | 1587 ft | 157 kts | 285° |
| 2026-05-08 00:05 | 32.74310 | -117.22910 | 2059 ft | 177 kts | 286° |
| 2026-05-08 00:05 | 32.74662 | -117.24428 | 2352 ft | 203 kts | 285° |
| 2026-05-08 00:06 | 32.75069 | -117.26130 | 2555 ft | 223 kts | 291° |
| 2026-05-08 00:06 | 32.76017 | -117.27562 | 2846 ft | 236 kts | 323° |
| 2026-05-08 00:06 | 32.77314 | -117.28688 | 3249 ft | 251 kts | 319° |
| 2026-05-08 00:06 | 32.78581 | -117.30181 | 3836 ft | 259 kts | 311° |
| 2026-05-08 00:07 | 32.79720 | -117.31838 | 4584 ft | 260 kts | 309° |
| 2026-05-08 00:07 | 32.80857 | -117.33496 | 5456 ft | 258 kts | 309° |
| 2026-05-08 00:07 | 32.82005 | -117.35175 | 6316 ft | 265 kts | 309° |
| 2026-05-08 00:07 | 32.83170 | -117.36910 | 7133 ft | 271 kts | 309° |
| 2026-05-08 00:08 | 32.84352 | -117.38697 | 7984 ft | 276 kts | 309° |
| 2026-05-08 00:08 | 32.85547 | -117.40523 | 8855 ft | 282 kts | 309° |
| 2026-05-08 00:08 | 32.86755 | -117.42383 | 9695 ft | 288 kts | 309° |
| 2026-05-08 00:08 | 32.87989 | -117.44291 | 10423 ft | 298 kts | 309° |
| 2026-05-08 00:09 | 32.89308 | -117.46333 | 10647 ft | 325 kts | 309° |
| 2026-05-08 00:09 | 32.90741 | -117.48557 | 10869 ft | 349 kts | 309° |
| 2026-05-08 00:09 | 32.92242 | -117.50892 | 11414 ft | 360 kts | 309° |
| 2026-05-08 00:09 | 32.93750 | -117.53243 | 12154 ft | 364 kts | 309° |
| 2026-05-08 00:10 | 32.95298 | -117.55656 | 12930 ft | 368 kts | 309° |
| 2026-05-08 00:10 | 32.96858 | -117.58089 | 13654 ft | 373 kts | 309° |
| 2026-05-08 00:10 | 32.98461 | -117.60589 | 14327 ft | 377 kts | 309° |
| 2026-05-08 00:10 | 33.00043 | -117.63060 | 14998 ft | 380 kts | 309° |
| 2026-05-08 00:11 | 33.01666 | -117.65597 | 15690 ft | 384 kts | 309° |
| 2026-05-08 00:11 | 33.03275 | -117.68113 | 16366 ft | 387 kts | 309° |
| 2026-05-08 00:11 | 33.04934 | -117.70707 | 17038 ft | 391 kts | 309° |
| 2026-05-08 00:11 | 33.06621 | -117.73265 | 17667 ft | 394 kts | 314° |
| 2026-05-08 00:12 | 33.08619 | -117.75483 | 18307 ft | 395 kts | 322° |
| 2026-05-08 00:12 | 33.10749 | -117.77559 | 18881 ft | 398 kts | 323° |
| 2026-05-08 00:12 | 33.12891 | -117.79632 | 19454 ft | 400 kts | 322° |
| 2026-05-08 00:12 | 33.15042 | -117.81764 | 20032 ft | 403 kts | 322° |
| 2026-05-08 00:13 | 33.17195 | -117.83942 | 20606 ft | 406 kts | 321° |
| 2026-05-08 00:13 | 33.18623 | -117.85398 | 20987 ft | 408 kts | 321° |
| 2026-05-08 00:13 | 33.21459 | -117.88449 | 21718 ft | 413 kts | 318° |
| 2026-05-08 00:13 | 33.23508 | -117.90870 | 22250 ft | 416 kts | 316° |
| 2026-05-08 00:14 | 33.24888 | -117.92544 | 22600 ft | 419 kts | 316° |
| 2026-05-08 00:14 | 33.27555 | -117.95804 | 23265 ft | 423 kts | 316° |
| 2026-05-08 00:14 | 33.28992 | -117.97556 | 23602 ft | 425 kts | 316° |
| 2026-05-08 00:14 | 33.31054 | -118.00058 | 24016 ft | 428 kts | 316° |
| 2026-05-08 00:15 | 33.33150 | -118.02586 | 24439 ft | 430 kts | 316° |
| 2026-05-08 00:15 | 33.35259 | -118.05120 | 24864 ft | 432 kts | 316° |
| 2026-05-08 00:15 | 33.37356 | -118.07634 | 25266 ft | 435 kts | 316° |
| 2026-05-08 00:15 | 33.39517 | -118.10224 | 25669 ft | 437 kts | 316° |
| 2026-05-08 00:16 | 33.41668 | -118.12802 | 26069 ft | 440 kts | 316° |
| 2026-05-08 00:16 | 33.43842 | -118.15408 | 26459 ft | 442 kts | 316° |
| 2026-05-08 00:16 | 33.46011 | -118.18012 | 26843 ft | 444 kts | 316° |
| 2026-05-08 00:16 | 33.48202 | -118.20645 | 27221 ft | 447 kts | 316° |
| 2026-05-08 00:17 | 33.50404 | -118.23292 | 27590 ft | 449 kts | 316° |
| 2026-05-08 00:17 | 33.52616 | -118.25954 | 27940 ft | 451 kts | 316° |
| 2026-05-08 00:17 | 33.54816 | -118.28604 | 28275 ft | 454 kts | 316° |
| 2026-05-08 00:17 | 33.57058 | -118.31306 | 28616 ft | 456 kts | 316° |
| 2026-05-08 00:18 | 33.59309 | -118.34021 | 28950 ft | 458 kts | 316° |
| 2026-05-08 00:18 | 33.61547 | -118.36723 | 29260 ft | 460 kts | 316° |
| 2026-05-08 00:18 | 33.63813 | -118.39461 | 29583 ft | 463 kts | 316° |
| 2026-05-08 00:18 | 33.66092 | -118.42216 | 29929 ft | 464 kts | 316° |
| 2026-05-08 00:19 | 33.68365 | -118.44966 | 30347 ft | 462 kts | 316° |
| 2026-05-08 00:19 | 33.70627 | -118.47706 | 30786 ft | 460 kts | 316° |
| 2026-05-08 00:19 | 33.72869 | -118.50423 | 31156 ft | 460 kts | 316° |
| 2026-05-08 00:19 | 33.75124 | -118.53157 | 31480 ft | 460 kts | 316° |
| 2026-05-08 00:20 | 33.77376 | -118.55890 | 31820 ft | 460 kts | 316° |
| 2026-05-08 00:20 | 33.79632 | -118.58630 | 32200 ft | 459 kts | 316° |
| 2026-05-08 00:20 | 33.81874 | -118.61356 | 32584 ft | 458 kts | 316° |
| 2026-05-08 00:20 | 33.84021 | -118.63968 | 32903 ft | 458 kts | 316° |
| 2026-05-08 00:21 | 33.86313 | -118.66758 | 33250 ft | 458 kts | 316° |
| 2026-05-08 00:21 | 33.88528 | -118.69459 | 33605 ft | 457 kts | 316° |
| 2026-05-08 00:21 | 33.90612 | -118.71999 | 33940 ft | 456 kts | 316° |
| 2026-05-08 00:21 | 33.92818 | -118.74689 | 34249 ft | 455 kts | 316° |
| 2026-05-08 00:22 | 33.95044 | -118.77408 | 34602 ft | 453 kts | 316° |
| 2026-05-08 00:22 | 33.97247 | -118.80101 | 34997 ft | 450 kts | 316° |
| 2026-05-08 00:22 | 33.99436 | -118.82779 | 35370 ft | 447 kts | 316° |
| 2026-05-08 00:22 | 34.01615 | -118.85446 | 35709 ft | 445 kts | 316° |
| 2026-05-08 00:23 | 34.03779 | -118.88098 | 36010 ft | 444 kts | 315° |
| 2026-05-08 00:23 | 34.05938 | -118.90745 | 36015 ft | 448 kts | 315° |
| 2026-05-08 00:23 | 34.10334 | -118.96143 | 36040 ft | 448 kts | 315° |
| 2026-05-08 00:24 | 34.14646 | -119.01443 | 36038 ft | 442 kts | 316° |
| 2026-05-08 00:24 | 34.19020 | -119.06687 | 36017 ft | 441 kts | 316° |
| 2026-05-08 00:25 | 34.23392 | -119.11868 | 36018 ft | 440 kts | 316° |
| 2026-05-08 00:25 | 34.27770 | -119.17072 | 36028 ft | 440 kts | 316° |
| 2026-05-08 00:26 | 34.32126 | -119.22273 | 36030 ft | 440 kts | 316° |
| 2026-05-08 00:26 | 34.36480 | -119.27487 | 36029 ft | 441 kts | 316° |
| 2026-05-08 00:27 | 34.40853 | -119.32732 | 36031 ft | 443 kts | 316° |
| 2026-05-08 00:27 | 34.45213 | -119.37971 | 36033 ft | 444 kts | 316° |
| 2026-05-08 00:28 | 34.49607 | -119.43256 | 36038 ft | 445 kts | 316° |
| 2026-05-08 00:28 | 34.54000 | -119.48549 | 36031 ft | 446 kts | 316° |
| 2026-05-08 00:29 | 34.58402 | -119.53863 | 36022 ft | 444 kts | 316° |
| 2026-05-08 00:29 | 34.62745 | -119.59113 | 36022 ft | 438 kts | 316° |
| 2026-05-08 00:30 | 34.67036 | -119.64306 | 36020 ft | 435 kts | 316° |
| 2026-05-08 00:30 | 34.71335 | -119.69519 | 36023 ft | 435 kts | 316° |
| 2026-05-08 00:31 | 34.75612 | -119.74711 | 36035 ft | 436 kts | 316° |
| 2026-05-08 00:31 | 34.79915 | -119.79943 | 36034 ft | 437 kts | 316° |
| 2026-05-08 00:32 | 34.84195 | -119.85157 | 36039 ft | 440 kts | 315° |
| 2026-05-08 00:32 | 34.88572 | -119.90498 | 36035 ft | 445 kts | 315° |
| 2026-05-08 00:33 | 34.92951 | -119.95850 | 36031 ft | 448 kts | 315° |
| 2026-05-08 00:33 | 34.97335 | -120.01217 | 36035 ft | 449 kts | 315° |
| 2026-05-08 00:34 | 35.01769 | -120.06653 | 36031 ft | 449 kts | 315° |
| 2026-05-08 00:34 | 35.06147 | -120.12029 | 36034 ft | 449 kts | 315° |
| 2026-05-08 00:35 | 35.10552 | -120.17449 | 36036 ft | 449 kts | 315° |
| 2026-05-08 00:35 | 35.14949 | -120.22865 | 36038 ft | 448 kts | 315° |
| 2026-05-08 00:36 | 35.19539 | -120.27925 | 36046 ft | 441 kts | 323° |
| 2026-05-08 00:36 | 35.24454 | -120.32361 | 36041 ft | 439 kts | 323° |
| 2026-05-08 00:37 | 35.29368 | -120.36781 | 36052 ft | 439 kts | 323° |
| 2026-05-08 00:38 | 35.36764 | -120.43543 | 36050 ft | 445 kts | 323° |
| 2026-05-08 00:38 | 35.41746 | -120.48125 | 36047 ft | 447 kts | 323° |
| 2026-05-08 00:39 | 35.46730 | -120.52715 | 36043 ft | 448 kts | 323° |
| 2026-05-08 00:39 | 35.51698 | -120.57294 | 36033 ft | 446 kts | 323° |
| 2026-05-08 00:40 | 35.56801 | -120.61572 | 36037 ft | 440 kts | 327° |
| 2026-05-08 00:40 | 35.61955 | -120.65538 | 36046 ft | 439 kts | 327° |
| 2026-05-08 00:40 | 35.64577 | -120.67556 | 35893 ft | 441 kts | 327° |
| 2026-05-08 00:41 | 35.67185 | -120.69579 | 35309 ft | 444 kts | 327° |
| 2026-05-08 00:41 | 35.69770 | -120.71599 | 34671 ft | 445 kts | 327° |
| 2026-05-08 00:41 | 35.72368 | -120.73637 | 34014 ft | 446 kts | 327° |
| 2026-05-08 00:41 | 35.75005 | -120.75713 | 33197 ft | 449 kts | 327° |
| 2026-05-08 00:42 | 35.77554 | -120.77723 | 32488 ft | 450 kts | 327° |
| 2026-05-08 00:42 | 35.80186 | -120.79800 | 31796 ft | 451 kts | 327° |
| 2026-05-08 00:42 | 35.82833 | -120.81890 | 31287 ft | 447 kts | 327° |
| 2026-05-08 00:42 | 35.85435 | -120.83945 | 30761 ft | 444 kts | 327° |
| 2026-05-08 00:43 | 35.88025 | -120.85993 | 30251 ft | 440 kts | 327° |
| 2026-05-08 00:43 | 35.90610 | -120.88037 | 29649 ft | 438 kts | 327° |
| 2026-05-08 00:43 | 35.93151 | -120.90049 | 29081 ft | 434 kts | 327° |
| 2026-05-08 00:43 | 35.95681 | -120.92054 | 28535 ft | 430 kts | 327° |
| 2026-05-08 00:44 | 35.98189 | -120.94042 | 28009 ft | 426 kts | 327° |
| 2026-05-08 00:44 | 36.00648 | -120.95994 | 27825 ft | 414 kts | 327° |
| 2026-05-08 00:44 | 36.02984 | -120.98003 | 27223 ft | 413 kts | 323° |
| 2026-05-08 00:44 | 36.05250 | -121.00144 | 26771 ft | 409 kts | 322° |
| 2026-05-08 00:45 | 36.07494 | -121.02329 | 26278 ft | 407 kts | 321° |
| 2026-05-08 00:45 | 36.09697 | -121.04482 | 25800 ft | 404 kts | 322° |
| 2026-05-08 00:45 | 36.11898 | -121.06618 | 25323 ft | 402 kts | 322° |
| 2026-05-08 00:45 | 36.14125 | -121.08762 | 24840 ft | 400 kts | 322° |
| 2026-05-08 00:46 | 36.16291 | -121.10836 | 24352 ft | 399 kts | 322° |
| 2026-05-08 00:46 | 36.18519 | -121.12964 | 23866 ft | 397 kts | 322° |
| 2026-05-08 00:46 | 36.20670 | -121.15016 | 23350 ft | 396 kts | 322° |
| 2026-05-08 00:46 | 36.22847 | -121.17094 | 22828 ft | 393 kts | 322° |
| 2026-05-08 00:47 | 36.25007 | -121.19158 | 22328 ft | 390 kts | 322° |
| 2026-05-08 00:47 | 36.27146 | -121.21203 | 21858 ft | 387 kts | 322° |
| 2026-05-08 00:47 | 36.29267 | -121.23233 | 21389 ft | 384 kts | 322° |
| 2026-05-08 00:47 | 36.31366 | -121.25244 | 20921 ft | 381 kts | 322° |
| 2026-05-08 00:48 | 36.33459 | -121.27249 | 20473 ft | 378 kts | 322° |
| 2026-05-08 00:48 | 36.35530 | -121.29234 | 20008 ft | 376 kts | 322° |
| 2026-05-08 00:48 | 36.37612 | -121.31236 | 19480 ft | 376 kts | 322° |
| 2026-05-08 00:48 | 36.39666 | -121.33215 | 18969 ft | 375 kts | 322° |
| 2026-05-08 00:49 | 36.41727 | -121.35203 | 18441 ft | 375 kts | 322° |
| 2026-05-08 00:49 | 36.43771 | -121.37175 | 17826 ft | 376 kts | 322° |
| 2026-05-08 00:49 | 36.45848 | -121.39179 | 17229 ft | 374 kts | 322° |
| 2026-05-08 00:49 | 36.47884 | -121.41146 | 16695 ft | 369 kts | 322° |
| 2026-05-08 00:50 | 36.49919 | -121.43014 | 16157 ft | 359 kts | 330° |
| 2026-05-08 00:50 | 36.52200 | -121.44220 | 15692 ft | 357 kts | 341° |
| 2026-05-08 00:50 | 36.54575 | -121.45190 | 15186 ft | 357 kts | 342° |
| 2026-05-08 00:50 | 36.56936 | -121.46132 | 14700 ft | 356 kts | 342° |
| 2026-05-08 00:51 | 36.59285 | -121.47081 | 14187 ft | 356 kts | 341° |
| 2026-05-08 00:51 | 36.61620 | -121.48042 | 13646 ft | 348 kts | 341° |
| 2026-05-08 00:51 | 36.63914 | -121.49001 | 13138 ft | 347 kts | 341° |
| 2026-05-08 00:51 | 36.66206 | -121.49966 | 12637 ft | 346 kts | 340° |
| 2026-05-08 00:52 | 36.68457 | -121.50917 | 12133 ft | 339 kts | 340° |
| 2026-05-08 00:52 | 36.70662 | -121.51850 | 11679 ft | 338 kts | 340° |
| 2026-05-08 00:52 | 36.72912 | -121.52803 | 11199 ft | 335 kts | 340° |
| 2026-05-08 00:52 | 36.75087 | -121.53724 | 10821 ft | 322 kts | 339° |
| 2026-05-08 00:53 | 36.77142 | -121.54596 | 10499 ft | 310 kts | 339° |
| 2026-05-08 00:53 | 36.79176 | -121.55460 | 10185 ft | 299 kts | 339° |
| 2026-05-08 00:53 | 36.81102 | -121.56278 | 9921 ft | 286 kts | 339° |
| 2026-05-08 00:53 | 36.82948 | -121.57062 | 9559 ft | 281 kts | 339° |
| 2026-05-08 00:54 | 36.84786 | -121.57845 | 9296 ft | 278 kts | 339° |
| 2026-05-08 00:54 | 36.86634 | -121.58633 | 8998 ft | 277 kts | 339° |
| 2026-05-08 00:54 | 36.88433 | -121.59400 | 8719 ft | 276 kts | 339° |
| 2026-05-08 00:54 | 36.90238 | -121.60169 | 8440 ft | 274 kts | 339° |
| 2026-05-08 00:55 | 36.92043 | -121.60939 | 8179 ft | 272 kts | 339° |
| 2026-05-08 00:55 | 36.93834 | -121.61701 | 7915 ft | 271 kts | 339° |
| 2026-05-08 00:55 | 36.95604 | -121.62452 | 7638 ft | 269 kts | 339° |
| 2026-05-08 00:55 | 36.97378 | -121.63204 | 7373 ft | 268 kts | 339° |
| 2026-05-08 00:56 | 36.99142 | -121.63952 | 7113 ft | 267 kts | 339° |
| 2026-05-08 00:56 | 37.00893 | -121.64695 | 6847 ft | 266 kts | 339° |
| 2026-05-08 00:56 | 37.02655 | -121.65444 | 6580 ft | 266 kts | 339° |
| 2026-05-08 00:56 | 37.04406 | -121.66189 | 6289 ft | 265 kts | 339° |
| 2026-05-08 00:57 | 37.06147 | -121.66930 | 6035 ft | 264 kts | 339° |
| 2026-05-08 00:57 | 37.07878 | -121.67665 | 5757 ft | 263 kts | 339° |
| 2026-05-08 00:57 | 37.09038 | -121.68159 | 5571 ft | 262 kts | 339° |
| 2026-05-08 00:57 | 37.11310 | -121.69128 | 5227 ft | 260 kts | 340° |
| 2026-05-08 00:58 | 37.13024 | -121.69858 | 4968 ft | 260 kts | 340° |
| 2026-05-08 00:58 | 37.14172 | -121.70347 | 4794 ft | 259 kts | 340° |
| 2026-05-08 00:58 | 37.16407 | -121.71382 | 4419 ft | 256 kts | 329° |
| 2026-05-08 00:58 | 37.17822 | -121.72685 | 4174 ft | 248 kts | 318° |
| 2026-05-08 00:59 | 37.18675 | -121.73644 | 4001 ft | 243 kts | 317° |
| 2026-05-08 00:59 | 37.19914 | -121.75048 | 3796 ft | 236 kts | 317° |
| 2026-05-08 00:59 | 37.21114 | -121.76377 | 3548 ft | 224 kts | 318° |
| 2026-05-08 00:59 | 37.22250 | -121.77623 | 3326 ft | 210 kts | 318° |
| 2026-05-08 01:00 | 37.23341 | -121.78815 | 3116 ft | 204 kts | 319° |
| 2026-05-08 01:00 | 37.24410 | -121.79947 | 2949 ft | 205 kts | 319° |
| 2026-05-08 01:00 | 37.25493 | -121.81117 | 2708 ft | 201 kts | 318° |
| 2026-05-08 01:00 | 37.26513 | -121.82238 | 2428 ft | 187 kts | 318° |
| 2026-05-08 01:01 | 37.27444 | -121.83266 | 2201 ft | 175 kts | 318° |
| 2026-05-08 01:01 | 37.28341 | -121.84256 | 1969 ft | 167 kts | 319° |
| 2026-05-08 01:01 | 37.29175 | -121.85176 | 1759 ft | 152 kts | 319° |
| 2026-05-08 01:01 | 37.29953 | -121.86033 | 1580 ft | 145 kts | 319° |
| 2026-05-08 01:02 | 37.30707 | -121.86864 | 1378 ft | 142 kts | 321° |
| 2026-05-08 01:02 | 37.31462 | -121.87695 | 1203 ft | 146 kts | 320° |
| 2026-05-08 01:02 | 37.32228 | -121.88541 | 995 ft | 145 kts | 319° |
| 2026-05-08 01:02 | 37.32975 | -121.89363 | 794 ft | 142 kts | 320° |
| 2026-05-08 01:03 | 37.33701 | -121.90161 | 630 ft | 137 kts | 320° |
| 2026-05-08 01:03 | 37.34419 | -121.90947 | 423 ft | 138 kts | 318° |
| 2026-05-08 01:03 | 37.35133 | -121.91744 | 240 ft | 136 kts | 319° |
| 2026-05-08 01:03 | 37.35845 | -121.92526 | 68 ft | 136 kts | 318° |
| 2026-05-08 01:04 | 37.36452 | -121.93190 | 51 ft | 87 kts | 319° |
| 2026-05-08 01:04 | 37.36753 | -121.93518 | 49 ft | 35 kts | 319° |
| 2026-05-08 01:04 | 37.36866 | -121.93576 | 49 ft | 15 kts | 359° |
| 2026-05-08 01:04 | 37.36923 | -121.93550 | 51 ft | 0 kts | 32° |
| 2026-05-08 01:05 | 37.36924 | -121.93549 | 51 ft | 1 kts | 32° |
| 2026-05-08 01:05 | 37.36930 | -121.93544 | 52 ft | 0 kts | 32° |
| 2026-05-08 01:05 | 37.36931 | -121.93543 | 52 ft | 0 kts | 32° |
| 2026-05-08 01:06 | 37.36932 | -121.93543 | 52 ft | 0 kts | 31° |
| 2026-05-08 01:07 | 37.36936 | -121.93539 | 50 ft | 3 kts | 33° |
| 2026-05-08 01:07 | 37.36980 | -121.93490 | 50 ft | 14 kts | 47° |
| 2026-05-08 01:07 | 37.37037 | -121.93371 | 51 ft | 15 kts | 97° |
| 2026-05-08 01:07 | 37.36946 | -121.93254 | 47 ft | 26 kts | 141° |
| 2026-05-08 01:08 | 37.36788 | -121.93078 | 49 ft | 32 kts | 139° |
| 2026-05-08 01:08 | 37.36626 | -121.92901 | 50 ft | 29 kts | 140° |
| 2026-05-08 01:08 | 37.36511 | -121.92775 | 52 ft | 16 kts | 139° |
| 2026-05-08 01:08 | 37.36492 | -121.92718 | 56 ft | 0 kts | 76° |
| 2026-05-08 01:09 | 37.36494 | -121.92711 | 59 ft | 4 kts | 71° |
| 2026-05-08 01:09 | 37.36491 | -121.92661 | 54 ft | 7 kts | 119° |
| 2026-05-08 01:09 | 37.36467 | -121.92624 | 59 ft | 5 kts | 123° |
| 2026-05-08 01:09 | 37.36468 | -121.92580 | 55 ft | 6 kts | 68° |
| 2026-05-08 01:10 | 37.36486 | -121.92549 | 51 ft | 4 kts | 52° |
| 2026-05-08 01:10 | 37.36492 | -121.92539 | 56 ft | 0 kts | 50° |
| 2026-05-08 01:10 | 37.36499 | -121.92528 | 53 ft | 0 kts | 50° |
| 2026-05-08 01:13 | 37.36502 | -121.92524 | 54 ft | 0 kts | 48° |